createdAt,value
2017-05-13T00:00:49.071Z,0
2017-05-13T00:01:48.789Z,0
2017-05-13T00:02:49.122Z,0
2017-05-13T00:03:49.140Z,0
2017-05-13T00:05:03.781Z,0
2017-05-13T00:05:49.193Z,0
2017-05-13T00:06:49.212Z,0
2017-05-13T00:07:49.236Z,0
2017-05-13T00:08:48.958Z,0
2017-05-13T00:10:03.900Z,0
2017-05-13T00:10:49.309Z,0
2017-05-13T00:11:49.331Z,0
2017-05-13T00:12:49.353Z,0
2017-05-13T00:14:03.993Z,0
2017-05-13T00:14:49.399Z,0
2017-05-13T00:15:49.419Z,0
2017-05-13T00:16:49.442Z,0
2017-05-13T00:17:49.468Z,0
2017-05-13T00:18:49.491Z,0
2017-05-13T00:20:49.535Z,0
2017-05-13T00:21:49.560Z,0
2017-05-13T00:22:49.586Z,0
2017-05-13T00:24:04.224Z,0
2017-05-13T00:26:04.272Z,0
2017-05-13T00:26:49.684Z,0
2017-05-13T00:27:49.703Z,0
2017-05-13T00:30:04.365Z,0
2017-05-13T00:30:49.775Z,0
2017-05-13T00:31:49.797Z,0
2017-05-13T00:32:49.819Z,0
2017-05-13T00:33:49.839Z,0
2017-05-13T00:34:49.863Z,0
2017-05-13T00:35:49.886Z,0
2017-05-13T00:36:49.914Z,0
2017-05-13T00:38:04.555Z,0
2017-05-13T00:38:49.959Z,0
2017-05-13T00:39:49.988Z,0
2017-05-13T00:40:50.004Z,0
2017-05-13T00:42:04.644Z,0
2017-05-13T00:42:50.053Z,0
2017-05-13T00:43:50.076Z,0
2017-05-13T00:44:50.104Z,0
2017-05-13T00:46:04.433Z,0
2017-05-13T00:47:49.910Z,0
2017-05-13T00:48:50.200Z,0
2017-05-13T00:49:50.217Z,0
2017-05-13T00:50:50.234Z,0
2017-05-13T00:51:49.972Z,0
2017-05-13T00:52:50.291Z,0
2017-05-13T00:53:50.317Z,0
2017-05-13T00:54:50.330Z,0
2017-05-13T00:55:50.362Z,0
2017-05-13T00:56:50.392Z,0
2017-05-13T00:57:50.410Z,0
2017-05-13T00:58:50.428Z,0
2017-05-13T00:59:50.451Z,0
2017-05-13T01:01:05.085Z,0
2017-05-13T01:02:50.516Z,0
2017-05-13T01:03:50.542Z,0
2017-05-13T01:04:50.564Z,0
2017-05-13T01:05:50.585Z,0
2017-05-13T01:06:50.616Z,0
2017-05-13T01:07:50.629Z,0
2017-05-13T01:08:50.656Z,0
2017-05-13T01:09:50.375Z,0
2017-05-13T01:10:50.701Z,0
2017-05-13T01:11:50.722Z,0
2017-05-13T01:12:50.755Z,0
2017-05-13T01:13:50.769Z,0
2017-05-13T01:14:50.797Z,0
2017-05-13T01:16:50.838Z,0
2017-05-13T01:17:50.863Z,0
2017-05-13T01:18:50.887Z,0
2017-05-13T01:19:50.909Z,0
2017-05-13T01:20:50.928Z,0
2017-05-13T01:21:50.651Z,0
2017-05-13T01:23:05.595Z,0
2017-05-13T01:23:51.001Z,0
2017-05-13T01:24:50.724Z,0
2017-05-13T01:26:51.070Z,0
2017-05-13T01:27:51.094Z,0
2017-05-13T01:28:51.122Z,0
2017-05-13T01:29:50.843Z,0
2017-05-13T01:30:51.160Z,0
2017-05-13T01:31:51.183Z,0
2017-05-13T01:33:05.820Z,0
2017-05-13T01:33:51.234Z,0
2017-05-13T01:34:51.256Z,0
2017-05-13T01:35:51.276Z,0
2017-05-13T01:36:51.302Z,0
2017-05-13T01:37:51.326Z,0
2017-05-13T01:38:51.346Z,0
2017-05-13T01:40:05.985Z,0
2017-05-13T01:41:51.414Z,0
2017-05-13T01:42:51.442Z,0
2017-05-13T01:43:51.463Z,0
2017-05-13T01:44:51.483Z,0
2017-05-13T01:46:51.526Z,0
2017-05-13T01:47:51.554Z,0
2017-05-13T01:49:06.189Z,0
2017-05-13T01:49:51.606Z,0
2017-05-13T01:50:51.622Z,0
2017-05-13T01:51:51.651Z,0
2017-05-13T01:52:51.666Z,0
2017-05-13T01:53:51.689Z,0
2017-05-13T01:54:51.714Z,0
2017-05-13T01:55:51.736Z,0
2017-05-13T01:56:51.759Z,0
2017-05-13T01:58:06.397Z,0
2017-05-13T01:58:51.807Z,0
2017-05-13T01:59:51.827Z,0
2017-05-13T02:00:51.851Z,0
2017-05-13T02:01:51.872Z,0
2017-05-13T02:02:51.900Z,0
2017-05-13T02:03:51.618Z,0
2017-05-13T02:05:06.562Z,0
2017-05-13T02:05:51.660Z,0
2017-05-13T02:06:51.985Z,0
2017-05-13T02:07:52.009Z,0
2017-05-13T02:08:52.032Z,0
2017-05-13T02:10:06.674Z,0
2017-05-13T02:10:52.079Z,0
2017-05-13T02:11:52.104Z,0
2017-05-13T02:12:52.126Z,0
2017-05-13T02:13:52.150Z,0
2017-05-13T02:14:52.178Z,0
2017-05-13T02:15:51.890Z,0
2017-05-13T02:16:52.216Z,0
2017-05-13T02:17:52.247Z,0
2017-05-13T02:19:52.293Z,0
2017-05-13T02:21:06.925Z,0
2017-05-13T02:21:52.338Z,0
2017-05-13T02:22:52.397Z,0
2017-05-13T02:23:52.380Z,0
2017-05-13T02:24:52.401Z,0
2017-05-13T02:25:52.422Z,0
2017-05-13T02:26:52.450Z,0
2017-05-13T02:27:52.468Z,0
2017-05-13T02:28:52.498Z,0
2017-05-13T02:29:52.518Z,0
2017-05-13T02:30:52.593Z,0
2017-05-13T02:33:52.615Z,0
2017-05-13T02:34:52.634Z,0
2017-05-13T02:36:07.270Z,0
2017-05-13T02:36:52.679Z,0
2017-05-13T02:37:52.719Z,0
2017-05-13T02:38:52.723Z,0
2017-05-13T02:39:52.746Z,0
2017-05-13T02:40:52.768Z,0
2017-05-13T02:41:52.795Z,0
2017-05-13T02:42:52.514Z,0
2017-05-13T02:43:52.838Z,0
2017-05-13T02:44:52.857Z,0
2017-05-13T02:45:52.885Z,4
2017-05-13T02:46:52.912Z,4
2017-05-13T02:47:52.932Z,0
2017-05-13T02:48:52.959Z,0
2017-05-13T02:49:52.671Z,4
2017-05-13T02:50:52.998Z,4
2017-05-13T02:52:53.054Z,0
2017-05-13T02:53:53.077Z,4
2017-05-13T02:54:52.787Z,4
2017-05-13T02:55:53.112Z,8
2017-05-13T02:56:53.139Z,4
2017-05-13T02:57:53.162Z,8
2017-05-13T02:58:53.186Z,8
2017-05-13T03:00:07.827Z,8
2017-05-13T03:00:53.231Z,8
2017-05-13T03:01:53.251Z,8
2017-05-13T03:02:52.969Z,12
2017-05-13T03:04:07.915Z,12
2017-05-13T03:04:53.325Z,12
2017-05-13T03:05:53.351Z,12
2017-05-13T03:06:53.366Z,16
2017-05-13T03:08:08.006Z,12
2017-05-13T03:08:53.412Z,16
2017-05-13T03:09:53.437Z,16
2017-05-13T03:10:53.460Z,20
2017-05-13T03:11:53.482Z,20
2017-05-13T03:12:53.505Z,20
2017-05-13T03:13:53.531Z,24
2017-05-13T03:14:53.557Z,24
2017-05-13T03:15:53.576Z,32
2017-05-13T03:17:08.216Z,32
2017-05-13T03:17:53.619Z,32
2017-05-13T03:19:08.260Z,36
2017-05-13T03:19:53.667Z,40
2017-05-13T03:20:53.393Z,40
2017-05-13T03:21:53.411Z,40
2017-05-13T03:22:53.735Z,44
2017-05-13T03:24:08.376Z,52
2017-05-13T03:24:53.799Z,52
2017-05-13T03:25:53.845Z,56
2017-05-13T03:27:08.141Z,64
2017-05-13T03:27:53.546Z,64
2017-05-13T03:28:53.872Z,72
2017-05-13T03:29:53.894Z,72
2017-05-13T03:30:53.919Z,72
2017-05-13T03:32:08.562Z,80
2017-05-13T03:32:53.969Z,84
2017-05-13T03:33:53.987Z,88
2017-05-13T03:34:54.021Z,92
2017-05-13T03:35:53.734Z,100
2017-05-13T03:36:53.749Z,104
2017-05-13T03:37:54.083Z,104
2017-05-13T03:38:54.106Z,108
2017-05-13T03:40:08.740Z,112
2017-05-13T03:40:54.145Z,112
2017-05-13T03:41:54.174Z,112
2017-05-13T03:42:53.893Z,112
2017-05-13T03:43:53.912Z,112
2017-05-13T03:44:53.935Z,120
2017-05-13T03:45:54.305Z,120
2017-05-13T03:46:54.283Z,128
2017-05-13T03:47:54.315Z,132
2017-05-13T03:48:54.333Z,144
2017-05-13T03:49:54.353Z,156
2017-05-13T03:51:54.400Z,180
2017-05-13T03:52:54.426Z,188
2017-05-13T03:53:54.448Z,196
2017-05-13T03:54:54.469Z,212
2017-05-13T03:56:09.107Z,232
2017-05-13T03:57:54.545Z,264
2017-05-13T03:58:54.564Z,276
2017-05-13T03:59:54.584Z,292
2017-05-13T04:00:54.609Z,300
2017-05-13T04:01:54.625Z,312
2017-05-13T04:02:54.657Z,328
2017-05-13T04:03:54.676Z,348
2017-05-13T04:04:54.697Z,368
2017-05-13T04:05:54.721Z,396
2017-05-13T04:06:54.749Z,424
2017-05-13T04:07:54.771Z,456
2017-05-13T04:09:54.816Z,520
2017-05-13T04:11:24.074Z,556
2017-05-13T04:11:54.860Z,564
2017-05-13T04:12:54.886Z,580
2017-05-13T04:13:54.904Z,592
2017-05-13T04:14:54.633Z,608
2017-05-13T04:15:54.951Z,624
2017-05-13T04:16:54.972Z,648
2017-05-13T04:17:55.006Z,672
2017-05-13T04:19:09.332Z,700
2017-05-13T04:19:54.737Z,720
2017-05-13T04:20:54.762Z,740
2017-05-13T04:22:55.112Z,776
2017-05-13T04:24:09.753Z,792
2017-05-13T04:24:55.158Z,804
2017-05-13T04:25:54.877Z,812
2017-05-13T04:26:55.203Z,828
2017-05-13T04:27:55.229Z,844
2017-05-13T04:28:55.256Z,868
2017-05-13T04:29:54.983Z,892
2017-05-13T04:30:54.990Z,916
2017-05-13T04:31:55.320Z,940
2017-05-13T04:32:55.341Z,964
2017-05-13T04:33:55.071Z,984
2017-05-13T04:34:55.081Z,1000
2017-05-13T04:35:55.418Z,1012
2017-05-13T04:36:55.432Z,1032
2017-05-13T04:37:55.457Z,1048
2017-05-13T04:38:55.478Z,1064
2017-05-13T04:39:55.500Z,1088
2017-05-13T04:40:55.526Z,1120
2017-05-13T04:41:55.547Z,1148
2017-05-13T04:43:09.884Z,1200
2017-05-13T04:43:55.596Z,1232
2017-05-13T04:44:55.622Z,1276
2017-05-13T04:45:55.639Z,1316
2017-05-13T04:46:55.666Z,1336
2017-05-13T04:47:55.685Z,1352
2017-05-13T04:48:55.405Z,1352
2017-05-13T04:50:10.043Z,1348
2017-05-13T04:50:55.757Z,1340
2017-05-13T04:51:55.779Z,1340
2017-05-13T04:53:10.415Z,1312
2017-05-13T04:54:10.437Z,1284
2017-05-13T04:54:55.540Z,1268
2017-05-13T04:55:55.869Z,1264
2017-05-13T04:56:55.893Z,1264
2017-05-13T04:59:10.553Z,1312
2017-05-13T04:59:55.965Z,1348
2017-05-13T05:00:55.984Z,1400
2017-05-13T05:01:55.705Z,1420
2017-05-13T05:02:55.747Z,1424
2017-05-13T05:03:56.051Z,1408
2017-05-13T05:05:10.697Z,1372
2017-05-13T05:05:56.100Z,1352
2017-05-13T05:06:56.121Z,1320
2017-05-13T05:09:55.891Z,1292
2017-05-13T05:10:56.223Z,1300
2017-05-13T05:11:56.241Z,1304
2017-05-13T05:12:56.263Z,1312
2017-05-13T05:13:56.286Z,1324
2017-05-13T05:15:10.924Z,1312
2017-05-13T05:15:56.329Z,1300
2017-05-13T05:16:56.354Z,1288
2017-05-13T05:17:56.381Z,1264
2017-05-13T05:18:56.403Z,1228
2017-05-13T05:19:56.426Z,1200
2017-05-13T05:20:56.144Z,1164
2017-05-13T05:21:56.470Z,1136
2017-05-13T05:23:11.110Z,1100
2017-05-13T05:24:11.137Z,1060
2017-05-13T05:24:56.537Z,1036
2017-05-13T05:25:56.560Z,1000
2017-05-13T05:26:56.583Z,972
2017-05-13T05:27:56.618Z,952
2017-05-13T05:28:56.644Z,944
2017-05-13T05:29:56.655Z,948
2017-05-13T05:31:11.292Z,968
2017-05-13T05:31:56.701Z,980
2017-05-13T05:32:56.729Z,1004
2017-05-13T05:33:56.745Z,1032
2017-05-13T05:34:56.772Z,1068
2017-05-13T05:35:56.792Z,1104
2017-05-13T05:36:56.813Z,1140
2017-05-13T05:37:56.836Z,1176
2017-05-13T05:38:56.912Z,1204
2017-05-13T05:40:56.907Z,1252
2017-05-13T05:42:11.546Z,1272
2017-05-13T05:43:11.570Z,1280
2017-05-13T05:43:56.976Z,1284
2017-05-13T05:46:11.340Z,1280
2017-05-13T05:46:57.047Z,1280
2017-05-13T05:47:56.764Z,1276
2017-05-13T05:48:57.089Z,1268
2017-05-13T05:49:57.112Z,1272
2017-05-13T05:50:56.833Z,1276
2017-05-13T05:51:56.855Z,1276
2017-05-13T05:53:11.497Z,1276
2017-05-13T05:53:57.208Z,1276
2017-05-13T05:55:11.845Z,1280
2017-05-13T05:56:11.867Z,1288
2017-05-13T05:56:57.277Z,1300
2017-05-13T05:58:57.026Z,1324
2017-05-13T05:59:57.343Z,1328
2017-05-13T06:00:57.372Z,1328
2017-05-13T06:01:57.390Z,1324
2017-05-13T06:02:57.413Z,1312
2017-05-13T06:03:57.437Z,1288
2017-05-13T06:04:57.463Z,1304
2017-05-13T06:05:57.484Z,1340
2017-05-13T06:06:57.504Z,1408
2017-05-13T06:07:57.535Z,1468
2017-05-13T06:08:57.550Z,1512
2017-05-13T06:09:57.573Z,1576
2017-05-13T06:11:12.214Z,1680
2017-05-13T06:11:57.620Z,1740
2017-05-13T06:14:57.694Z,1976
2017-05-13T06:15:57.454Z,2056
2017-05-13T06:18:12.071Z,2232
2017-05-13T06:18:57.781Z,2292
2017-05-13T06:19:57.808Z,2372
2017-05-13T06:20:57.828Z,2448
2017-05-13T06:21:57.852Z,2524
2017-05-13T06:22:57.877Z,2588
2017-05-13T06:23:57.898Z,2648
2017-05-13T06:24:57.936Z,2716
2017-05-13T06:25:57.950Z,2792
2017-05-13T06:26:57.968Z,2888
2017-05-13T06:27:57.990Z,2988
2017-05-13T06:29:12.327Z,3112
2017-05-13T06:29:58.037Z,3188
2017-05-13T06:30:58.060Z,3264
2017-05-13T06:31:58.080Z,3316
2017-05-13T06:32:58.104Z,3340
2017-05-13T06:34:12.752Z,3308
2017-05-13T06:34:58.157Z,3256
2017-05-13T06:35:58.173Z,3160
2017-05-13T06:36:57.895Z,3076
2017-05-13T06:37:58.225Z,3116
2017-05-13T06:38:58.247Z,3128
2017-05-13T06:39:58.269Z,3132
2017-05-13T06:40:58.293Z,3108
2017-05-13T06:42:12.971Z,3156
2017-05-13T06:42:58.340Z,3212
2017-05-13T06:44:12.977Z,3276
2017-05-13T06:45:58.419Z,3380
2017-05-13T06:46:58.134Z,3488
2017-05-13T06:47:58.454Z,3616
2017-05-13T06:48:58.481Z,3716
2017-05-13T06:50:12.812Z,3776
2017-05-13T06:50:58.222Z,3768
2017-05-13T06:51:58.549Z,3728
2017-05-13T06:52:58.573Z,3744
2017-05-13T06:53:58.595Z,3796
2017-05-13T06:54:58.622Z,3888
2017-05-13T06:55:58.386Z,3956
2017-05-13T06:56:58.666Z,4072
2017-05-13T06:57:58.688Z,4220
2017-05-13T06:58:58.715Z,4328
2017-05-13T06:59:58.741Z,4364
2017-05-13T07:00:58.761Z,4340
2017-05-13T07:01:58.782Z,4288
2017-05-13T07:04:58.858Z,4176
2017-05-13T07:06:13.493Z,4144
2017-05-13T07:06:58.910Z,4120
2017-05-13T07:07:58.927Z,4096
2017-05-13T07:08:58.947Z,4124
2017-05-13T07:09:58.062Z,4212
2017-05-13T07:11:13.312Z,4344
2017-05-13T07:11:59.025Z,4416
2017-05-13T07:13:59.065Z,4688
2017-05-13T07:14:59.089Z,4872
2017-05-13T07:18:59.188Z,5104
2017-05-13T07:19:58.910Z,5072
2017-05-13T07:21:13.852Z,5108
2017-05-13T07:21:59.259Z,5076
2017-05-13T07:22:58.981Z,4644
2017-05-13T07:23:59.309Z,4024
2017-05-13T07:24:59.328Z,3564
2017-05-13T07:25:59.359Z,3320
2017-05-13T07:26:59.375Z,3232
2017-05-13T07:27:59.400Z,3232
2017-05-13T07:29:14.043Z,3336
2017-05-13T07:30:14.065Z,3452
2017-05-13T07:30:59.170Z,3540
2017-05-13T07:31:59.497Z,3644
2017-05-13T07:32:59.523Z,3748
2017-05-13T07:33:59.549Z,3832
2017-05-13T07:34:59.571Z,3876
2017-05-13T07:36:59.313Z,3848
2017-05-13T07:37:59.641Z,3816
2017-05-13T07:38:59.666Z,3792
2017-05-13T07:40:14.007Z,3780
2017-05-13T07:40:59.717Z,3788
2017-05-13T07:41:59.739Z,3804
2017-05-13T07:42:59.463Z,3832
2017-05-13T07:43:59.785Z,3888
2017-05-13T07:45:14.425Z,3976
2017-05-13T07:45:59.834Z,4012
2017-05-13T07:46:59.857Z,4068
2017-05-13T07:47:59.883Z,4152
2017-05-13T07:48:59.909Z,4228
2017-05-13T07:49:59.928Z,4272
2017-05-13T07:50:59.952Z,4232
2017-05-13T07:53:14.655Z,4120
2017-05-13T07:54:00.022Z,4068
2017-05-13T07:55:00.052Z,3956
2017-05-13T07:56:00.127Z,3780
2017-05-13T07:57:00.099Z,3604
2017-05-13T07:58:00.120Z,3544
2017-05-13T07:59:00.143Z,3544
2017-05-13T08:00:00.166Z,3540
2017-05-13T08:01:14.808Z,3492
2017-05-13T08:02:00.215Z,3484
2017-05-13T08:03:00.244Z,3468
2017-05-13T08:04:00.264Z,3448
2017-05-13T08:06:00.008Z,3472
2017-05-13T08:07:00.337Z,3480
2017-05-13T08:08:00.358Z,3500
2017-05-13T08:09:15.001Z,3508
2017-05-13T08:10:00.407Z,3500
2017-05-13T08:11:00.479Z,3496
2017-05-13T08:12:00.456Z,3472
2017-05-13T08:13:00.479Z,3456
2017-05-13T08:14:00.502Z,3464
2017-05-13T08:15:00.530Z,3480
2017-05-13T08:16:00.550Z,3492
2017-05-13T08:17:15.192Z,3492
2017-05-13T08:18:00.619Z,3504
2017-05-13T08:19:00.622Z,3524
2017-05-13T08:20:00.646Z,3484
2017-05-13T08:21:00.671Z,3548
2017-05-13T08:22:15.312Z,3624
2017-05-13T08:23:00.417Z,3812
2017-05-13T08:25:15.385Z,4144
2017-05-13T08:26:00.829Z,4144
2017-05-13T08:27:00.816Z,4140
2017-05-13T08:28:00.838Z,4108
2017-05-13T08:29:00.862Z,4004
2017-05-13T08:30:00.890Z,4060
2017-05-13T08:31:00.913Z,4308
2017-05-13T08:32:00.936Z,4172
2017-05-13T08:33:00.957Z,4276
2017-05-13T08:34:00.984Z,4288
2017-05-13T08:35:01.045Z,4352
2017-05-13T08:36:01.035Z,4492
2017-05-13T08:37:00.754Z,4436
2017-05-13T08:38:01.086Z,4404
2017-05-13T08:39:00.798Z,4420
2017-05-13T08:41:15.767Z,4268
2017-05-13T08:42:00.266Z,4256
2017-05-13T08:43:00.900Z,4320
2017-05-13T08:44:01.226Z,3944
2017-05-13T08:45:15.566Z,3916
2017-05-13T08:46:01.274Z,3960
2017-05-13T08:47:01.297Z,3764
2017-05-13T08:48:01.321Z,3480
2017-05-13T08:49:01.348Z,3372
2017-05-13T08:50:15.986Z,2916
2017-05-13T08:51:01.398Z,2652
2017-05-13T08:52:01.417Z,2832
2017-05-13T08:54:01.469Z,2912
2017-05-13T08:55:01.493Z,2844
2017-05-13T08:56:16.134Z,2708
2017-05-13T08:57:01.541Z,2904
2017-05-13T08:58:01.566Z,3180
2017-05-13T08:59:01.590Z,3056
2017-05-13T09:00:01.307Z,3028
2017-05-13T09:01:16.257Z,3228
2017-05-13T09:02:01.660Z,3176
2017-05-13T09:03:01.682Z,3108
2017-05-13T09:04:01.708Z,2856
2017-05-13T09:05:01.730Z,2912
2017-05-13T09:07:01.475Z,3196
2017-05-13T09:10:01.851Z,2972
2017-05-13T09:11:01.878Z,2980
2017-05-13T09:12:01.599Z,3032
2017-05-13T09:13:01.621Z,3044
2017-05-13T09:14:01.948Z,2872
2017-05-13T09:15:01.972Z,2688
2017-05-13T09:16:01.995Z,2736
2017-05-13T09:17:16.336Z,3056
2017-05-13T09:18:16.359Z,3316
2017-05-13T09:19:01.768Z,3348
2017-05-13T09:20:02.095Z,3532
2017-05-13T09:21:02.115Z,3924
2017-05-13T09:22:01.839Z,4124
2017-05-13T09:23:16.826Z,3936
2017-05-13T09:24:02.191Z,3788
2017-05-13T09:25:16.525Z,3768
2017-05-13T09:28:16.901Z,4076
2017-05-13T09:29:02.006Z,3920
2017-05-13T09:30:02.344Z,4056
2017-05-13T09:31:02.053Z,4160
2017-05-13T09:32:02.077Z,4068
2017-05-13T09:33:02.408Z,4056
2017-05-13T09:34:02.432Z,4116
2017-05-13T09:35:02.452Z,4300
2017-05-13T09:36:02.481Z,4304
2017-05-13T09:37:02.200Z,3940
2017-05-13T09:38:02.528Z,3852
2017-05-13T09:39:02.247Z,3688
2017-05-13T09:42:02.319Z,3484
2017-05-13T09:43:02.345Z,3664
2017-05-13T09:44:17.287Z,3856
2017-05-13T09:45:02.697Z,3884
2017-05-13T09:46:02.719Z,3816
2017-05-13T09:47:17.365Z,3396
2017-05-13T09:48:02.765Z,3528
2017-05-13T09:49:02.797Z,4096
2017-05-13T09:50:02.510Z,4480
2017-05-13T09:51:02.538Z,4648
2017-05-13T09:52:02.862Z,4864
2017-05-13T09:53:02.584Z,5096
2017-05-13T09:54:02.911Z,5196
2017-05-13T09:58:03.009Z,5708
2017-05-13T09:59:02.426Z,5896
2017-05-13T10:00:17.368Z,6068
2017-05-13T10:01:02.478Z,6280
2017-05-13T10:02:02.801Z,6700
2017-05-13T10:03:03.129Z,6960
2017-05-13T10:04:03.157Z,7188
2017-05-13T10:05:03.179Z,7152
2017-05-13T10:06:03.201Z,6988
2017-05-13T10:07:03.232Z,6776
2017-05-13T10:08:02.951Z,6580
2017-05-13T10:09:03.276Z,6500
2017-05-13T10:10:03.302Z,6488
2017-05-13T10:11:03.330Z,6496
2017-05-13T10:12:03.350Z,6544
2017-05-13T10:14:03.400Z,7152
2017-05-13T10:15:03.423Z,7392
2017-05-13T10:16:18.063Z,7616
2017-05-13T10:17:03.167Z,7624
2017-05-13T10:18:03.197Z,7840
2017-05-13T10:19:02.917Z,8316
2017-05-13T10:20:03.545Z,8912
2017-05-13T10:21:17.887Z,9772
2017-05-13T10:22:03.596Z,10240
2017-05-13T10:23:03.320Z,10524
2017-05-13T10:24:03.644Z,10672
2017-05-13T10:25:18.285Z,10804
2017-05-13T10:26:03.694Z,10884
2017-05-13T10:27:18.335Z,10740
2017-05-13T10:29:03.775Z,10328
2017-05-13T10:30:03.797Z,10008
2017-05-13T10:31:18.444Z,9752
2017-05-13T10:32:03.844Z,9520
2017-05-13T10:33:03.890Z,9040
2017-05-13T10:34:03.895Z,8640
2017-05-13T10:35:03.921Z,8308
2017-05-13T10:36:03.949Z,7948
2017-05-13T10:37:03.967Z,7732
2017-05-13T10:38:03.997Z,7588
2017-05-13T10:39:18.636Z,7568
2017-05-13T10:40:18.661Z,7756
2017-05-13T10:41:18.685Z,7908
2017-05-13T10:42:04.101Z,7872
2017-05-13T10:45:04.170Z,8456
2017-05-13T10:46:04.195Z,9048
2017-05-13T10:47:04.228Z,9784
2017-05-13T10:48:04.244Z,10556
2017-05-13T10:49:03.970Z,10984
2017-05-13T10:50:03.994Z,11068
2017-05-13T10:51:04.324Z,10888
2017-05-13T10:52:04.043Z,10528
2017-05-13T10:53:04.069Z,9896
2017-05-13T10:54:19.016Z,9332
2017-05-13T10:55:04.423Z,9292
2017-05-13T10:56:18.763Z,9184
2017-05-13T10:57:19.090Z,8916
2017-05-13T10:58:04.500Z,8784
2017-05-13T10:59:19.142Z,8880
2017-05-13T11:01:04.581Z,9172
2017-05-13T11:02:04.603Z,9740
2017-05-13T11:03:19.248Z,10040
2017-05-13T11:04:04.656Z,9904
2017-05-13T11:05:04.680Z,9444
2017-05-13T11:06:04.704Z,8980
2017-05-13T11:07:04.732Z,8604
2017-05-13T11:08:04.757Z,8456
2017-05-13T11:09:19.401Z,8660
2017-05-13T11:10:04.848Z,8540
2017-05-13T11:11:04.833Z,8408
2017-05-13T11:12:19.474Z,8232
2017-05-13T11:13:04.889Z,8148
2017-05-13T11:14:04.919Z,8012
2017-05-13T11:15:04.935Z,7688
2017-05-13T11:16:04.962Z,7764
2017-05-13T11:18:05.017Z,7916
2017-05-13T11:19:19.655Z,8060
2017-05-13T11:20:05.066Z,8128
2017-05-13T11:21:05.109Z,8004
2017-05-13T11:22:05.120Z,7780
2017-05-13T11:23:04.840Z,7812
2017-05-13T11:24:05.170Z,7924
2017-05-13T11:25:04.887Z,7948
2017-05-13T11:26:19.843Z,7968
2017-05-13T11:27:05.247Z,7904
2017-05-13T11:28:19.892Z,7708
2017-05-13T11:29:05.299Z,7668
2017-05-13T11:30:05.322Z,7920
2017-05-13T11:31:20.009Z,8500
2017-05-13T11:33:05.402Z,8220
2017-05-13T11:34:05.423Z,8544
2017-05-13T11:35:20.068Z,9156
2017-05-13T11:36:05.477Z,9364
2017-05-13T11:37:05.503Z,9476
2017-05-13T11:38:05.527Z,9604
2017-05-13T11:39:05.557Z,9940
2017-05-13T11:40:05.580Z,9808
2017-05-13T11:41:05.605Z,9480
2017-05-13T11:42:05.327Z,9344
2017-05-13T11:43:05.656Z,9212
2017-05-13T11:44:20.303Z,9100
2017-05-13T11:45:05.711Z,9168
2017-05-13T11:46:05.734Z,9124
2017-05-13T11:47:05.464Z,8988
2017-05-13T11:48:05.792Z,8720
2017-05-13T11:50:05.847Z,7468
2017-05-13T11:51:20.486Z,6888
2017-05-13T11:52:05.589Z,6552
2017-05-13T11:53:05.920Z,6592
2017-05-13T11:54:05.941Z,6724
2017-05-13T11:55:05.967Z,6232
2017-05-13T11:56:05.998Z,5964
2017-05-13T11:57:05.414Z,5800
2017-05-13T11:58:20.668Z,5620
2017-05-13T11:59:06.072Z,5460
2017-05-13T12:00:05.799Z,5380
2017-05-13T12:01:05.826Z,5388
2017-05-13T12:02:20.770Z,5524
2017-05-13T12:03:06.179Z,5708
2017-05-13T12:04:06.205Z,5864
2017-05-13T12:05:06.235Z,6484
2017-05-13T12:06:20.614Z,6720
2017-05-13T12:08:06.007Z,5784
2017-05-13T12:09:06.032Z,5684
2017-05-13T12:10:06.062Z,5956
2017-05-13T12:11:06.389Z,6320
2017-05-13T12:12:06.413Z,6520
2017-05-13T12:13:21.059Z,6716
2017-05-13T12:14:06.466Z,6984
2017-05-13T12:15:21.114Z,7500
2017-05-13T12:16:06.519Z,7772
2017-05-13T12:17:06.545Z,7804
2017-05-13T12:18:06.573Z,7424
2017-05-13T12:19:06.594Z,6996
2017-05-13T12:20:06.666Z,6768
2017-05-13T12:21:06.698Z,7252
2017-05-13T12:22:06.674Z,7972
2017-05-13T12:23:06.707Z,8724
2017-05-13T12:24:06.426Z,9008
2017-05-13T12:25:06.755Z,9272
2017-05-13T12:26:06.784Z,9528
2017-05-13T12:27:21.122Z,9516
2017-05-13T12:28:21.452Z,9388
2017-05-13T12:29:06.857Z,9248
2017-05-13T12:30:06.888Z,9096
2017-05-13T12:31:21.528Z,8976
2017-05-13T12:32:06.936Z,8924
2017-05-13T12:33:06.966Z,8932
2017-05-13T12:35:07.015Z,9288
2017-05-13T12:36:07.042Z,9696
2017-05-13T12:37:07.067Z,10056
2017-05-13T12:38:21.713Z,10468
2017-05-13T12:39:07.126Z,10712
2017-05-13T12:40:07.150Z,10884
2017-05-13T12:41:06.872Z,10868
2017-05-13T12:42:07.202Z,10884
2017-05-13T12:43:07.226Z,11020
2017-05-13T12:44:07.255Z,10628
2017-05-13T12:45:07.278Z,10024
2017-05-13T12:46:21.924Z,9160
2017-05-13T12:47:21.949Z,8680
2017-05-13T12:48:21.976Z,8900
2017-05-13T12:49:07.391Z,8984
2017-05-13T12:50:07.413Z,9224
2017-05-13T12:51:07.440Z,9316
2017-05-13T12:52:22.087Z,9188
2017-05-13T12:53:07.491Z,9064
2017-05-13T12:54:22.137Z,8764
2017-05-13T12:55:07.553Z,8568
2017-05-13T12:56:07.577Z,8336
2017-05-13T12:57:07.600Z,8124
2017-05-13T12:58:07.324Z,7892
2017-05-13T12:59:07.352Z,7644
2017-05-13T13:00:07.682Z,7464
2017-05-13T13:01:07.717Z,7432
2017-05-13T13:02:07.433Z,7512
2017-05-13T13:03:07.456Z,7544
2017-05-13T13:04:07.789Z,7496
2017-05-13T13:05:07.814Z,7420
2017-05-13T13:06:22.461Z,7332
2017-05-13T13:07:22.485Z,7304
2017-05-13T13:08:07.593Z,7244
2017-05-13T13:09:07.921Z,7160
2017-05-13T13:10:22.565Z,7068
2017-05-13T13:11:07.975Z,7056
2017-05-13T13:12:07.698Z,7032
2017-05-13T13:13:07.725Z,6988
2017-05-13T13:14:08.055Z,7016
2017-05-13T13:15:08.081Z,7188
2017-05-13T13:16:08.113Z,7140
2017-05-13T13:17:08.141Z,7292
2017-05-13T13:18:22.782Z,7452
2017-05-13T13:19:07.890Z,7644
2017-05-13T13:20:08.218Z,7808
2017-05-13T13:21:08.244Z,7884
2017-05-13T13:23:08.297Z,7920
2017-05-13T13:24:08.329Z,7996
2017-05-13T13:25:08.048Z,8048
2017-05-13T13:26:22.994Z,8152
2017-05-13T13:27:08.100Z,8228
2017-05-13T13:28:08.442Z,8304
2017-05-13T13:29:08.461Z,8420
2017-05-13T13:30:08.484Z,8444
2017-05-13T13:31:08.510Z,8676
2017-05-13T13:32:08.238Z,8780
2017-05-13T13:33:08.565Z,8924
2017-05-13T13:34:08.593Z,9104
2017-05-13T13:35:08.622Z,9172
2017-05-13T13:36:08.650Z,9392
2017-05-13T13:37:08.676Z,9412
2017-05-13T13:38:08.703Z,9360
2017-05-13T13:39:08.730Z,9324
2017-05-13T13:40:08.758Z,9516
2017-05-13T13:41:23.100Z,9744
2017-05-13T13:42:08.510Z,9892
2017-05-13T13:43:08.537Z,9512
2017-05-13T13:44:08.561Z,9108
2017-05-13T13:45:08.893Z,9188
2017-05-13T13:46:08.922Z,9304
2017-05-13T13:47:08.644Z,10396
2017-05-13T13:48:08.974Z,10120
2017-05-13T13:49:23.621Z,10272
2017-05-13T13:50:23.649Z,10360
2017-05-13T13:51:23.673Z,10708
2017-05-13T13:52:23.703Z,11428
2017-05-13T13:53:09.119Z,11016
2017-05-13T13:55:09.173Z,11656
2017-05-13T13:56:09.198Z,11380
2017-05-13T13:58:09.247Z,11580
2017-05-13T13:59:09.274Z,12056
2017-05-13T14:00:09.306Z,11744
2017-05-13T14:01:09.030Z,12228
2017-05-13T14:02:09.359Z,10808
2017-05-13T14:03:09.387Z,10284
2017-05-13T14:04:09.119Z,10240
2017-05-13T14:05:09.441Z,11324
2017-05-13T14:06:09.469Z,10144
2017-05-13T14:07:09.195Z,10576
2017-05-13T14:08:09.222Z,9872
2017-05-13T14:10:09.583Z,8988
2017-05-13T14:12:09.639Z,8452
2017-05-13T14:13:24.285Z,8216
2017-05-13T14:15:24.342Z,8020
2017-05-13T14:16:09.137Z,7972
2017-05-13T14:17:09.775Z,8000
2017-05-13T14:18:09.499Z,8132
2017-05-13T14:19:09.525Z,8416
2017-05-13T14:20:09.248Z,8732
2017-05-13T14:21:24.501Z,8860
2017-05-13T14:22:09.608Z,8956
2017-05-13T14:23:09.985Z,9040
2017-05-13T14:24:24.582Z,8896
2017-05-13T14:25:24.311Z,8848
2017-05-13T14:26:10.026Z,8860
2017-05-13T14:28:10.075Z,8804
2017-05-13T14:29:24.728Z,8744
2017-05-13T14:30:09.834Z,8648
2017-05-13T14:31:10.161Z,8624
2017-05-13T14:32:10.189Z,8564
2017-05-13T14:33:09.911Z,8500
2017-05-13T14:34:10.244Z,8428
2017-05-13T14:35:10.285Z,8336
2017-05-13T14:36:09.994Z,8236
2017-05-13T14:37:24.945Z,8140
2017-05-13T14:38:24.972Z,8016
2017-05-13T14:39:10.382Z,7936
2017-05-13T14:40:09.804Z,7820
2017-05-13T14:41:25.056Z,7648
2017-05-13T14:42:10.469Z,7548
2017-05-13T14:43:10.496Z,7428
2017-05-13T14:44:10.523Z,7308
2017-05-13T14:45:25.167Z,7180